sensor_id;sensor_type;location;lat;lon;timestamp;pressure;altitude;pressure_sealevel;temperature;humidity
35226;BME280;21813;49.686;21.766;2023-05-23T00:01:30;98216.94;;;10.78;100.00
35226;BME280;21813;49.686;21.766;2023-05-23T00:03:57;98189.50;;;10.53;100.00
35226;BME280;21813;49.686;21.766;2023-05-23T00:06:23;98224.56;;;10.70;100.00
35226;BME280;21813;49.686;21.766;2023-05-23T00:08:50;98219.50;;;10.68;100.00
35226;BME280;21813;49.686;21.766;2023-05-23T00:11:16;98230.88;;;10.67;100.00
35226;BME280;21813;49.686;21.766;2023-05-23T00:13:45;98195.09;;;10.48;100.00
35226;BME280;21813;49.686;21.766;2023-05-23T00:16:11;98197.25;;;10.43;100.00
35226;BME280;21813;49.686;21.766;2023-05-23T00:18:37;98195.00;;;10.39;100.00
35226;BME280;21813;49.686;21.766;2023-05-23T00:21:07;98205.16;;;10.42;100.00
35226;BME280;21813;49.686;21.766;2023-05-23T00:23:34;98208.97;;;10.38;100.00
35226;BME280;21813;49.686;21.766;2023-05-23T00:26:00;98213.63;;;10.34;100.00
35226;BME280;21813;49.686;21.766;2023-05-23T00:28:27;98212.22;;;10.30;100.00
35226;BME280;21813;49.686;21.766;2023-05-23T00:30:53;98194.13;;;10.17;100.00
35226;BME280;21813;49.686;21.766;2023-05-23T00:33:21;98203.88;;;10.15;100.00
35226;BME280;21813;49.686;21.766;2023-05-23T00:35:47;98206.22;;;10.18;100.00
35226;BME280;21813;49.686;21.766;2023-05-23T00:38:14;98194.16;;;10.06;100.00
35226;BME280;21813;49.686;21.766;2023-05-23T00:40:40;98183.03;;;10.04;100.00
35226;BME280;21813;49.686;21.766;2023-05-23T00:43:07;98183.66;;;9.97;100.00
35226;BME280;21813;49.686;21.766;2023-05-23T00:45:33;98194.63;;;10.00;100.00
35226;BME280;21813;49.686;21.766;2023-05-23T00:48:01;98205.31;;;9.97;100.00
35226;BME280;21813;49.686;21.766;2023-05-23T00:50:28;98207.91;;;9.97;100.00
35226;BME280;21813;49.686;21.766;2023-05-23T00:52:56;98176.38;;;9.80;100.00
35226;BME280;21813;49.686;21.766;2023-05-23T00:55:23;98214.63;;;10.00;100.00
35226;BME280;21813;49.686;21.766;2023-05-23T00:57:52;98187.63;;;9.80;100.00
35226;BME280;21813;49.686;21.766;2023-05-23T01:00:20;98175.34;;;9.71;100.00
35226;BME280;21813;49.686;21.766;2023-05-23T01:02:49;98188.78;;;9.76;100.00
35226;BME280;21813;49.686;21.766;2023-05-23T01:05:16;98181.47;;;9.70;100.00
35226;BME280;21813;49.686;21.766;2023-05-23T01:07:45;98214.06;;;9.85;100.00
35226;BME280;21813;49.686;21.766;2023-05-23T01:10:18;98165.19;;;9.57;100.00
35226;BME280;21813;49.686;21.766;2023-05-23T01:15:54;98180.81;;;9.57;100.00
35226;BME280;21813;49.686;21.766;2023-05-23T01:21:05;98178.78;;;9.49;100.00
35226;BME280;21813;49.686;21.766;2023-05-23T01:29:45;98192.25;;;9.54;100.00
35226;BME280;21813;49.686;21.766;2023-05-23T01:32:15;98165.44;;;9.31;100.00
35226;BME280;21813;49.686;21.766;2023-05-23T01:34:44;98201.38;;;9.49;100.00
35226;BME280;21813;49.686;21.766;2023-05-23T01:37:10;98202.81;;;9.42;100.00
35226;BME280;21813;49.686;21.766;2023-05-23T01:39:40;98177.16;;;9.26;100.00
35226;BME280;21813;49.686;21.766;2023-05-23T01:42:07;98180.47;;;9.28;100.00
35226;BME280;21813;49.686;21.766;2023-05-23T01:44:34;98191.81;;;9.27;100.00
35226;BME280;21813;49.686;21.766;2023-05-23T01:47:06;98188.38;;;9.26;100.00
35226;BME280;21813;49.686;21.766;2023-05-23T01:49:36;98180.00;;;9.23;100.00
35226;BME280;21813;49.686;21.766;2023-05-23T01:52:03;98193.13;;;9.32;100.00
35226;BME280;21813;49.686;21.766;2023-05-23T01:54:32;98161.91;;;9.10;100.00
35226;BME280;21813;49.686;21.766;2023-05-23T01:57:00;98180.25;;;9.20;100.00
35226;BME280;21813;49.686;21.766;2023-05-23T01:59:26;98192.16;;;9.22;100.00
35226;BME280;21813;49.686;21.766;2023-05-23T02:01:52;98175.59;;;9.12;100.00
35226;BME280;21813;49.686;21.766;2023-05-23T02:04:20;98176.53;;;9.11;100.00
35226;BME280;21813;49.686;21.766;2023-05-23T02:06:46;98191.94;;;9.14;100.00
35226;BME280;21813;49.686;21.766;2023-05-23T02:09:13;98187.22;;;9.19;100.00
35226;BME280;21813;49.686;21.766;2023-05-23T02:11:38;98176.53;;;9.11;100.00
35226;BME280;21813;49.686;21.766;2023-05-23T02:14:06;98168.16;;;9.08;100.00
35226;BME280;21813;49.686;21.766;2023-05-23T02:16:31;98167.59;;;9.04;100.00
35226;BME280;21813;49.686;21.766;2023-05-23T02:18:59;98175.84;;;9.09;100.00
35226;BME280;21813;49.686;21.766;2023-05-23T02:21:26;98129.53;;;8.81;100.00
35226;BME280;21813;49.686;21.766;2023-05-23T02:23:53;98157.66;;;8.87;100.00
35226;BME280;21813;49.686;21.766;2023-05-23T02:26:18;98184.47;;;8.99;100.00
35226;BME280;21813;49.686;21.766;2023-05-23T02:28:47;98147.81;;;8.79;100.00
35226;BME280;21813;49.686;21.766;2023-05-23T02:31:12;98174.53;;;8.93;100.00
35226;BME280;21813;49.686;21.766;2023-05-23T02:33:38;98188.50;;;8.92;100.00
35226;BME280;21813;49.686;21.766;2023-05-23T02:36:04;98161.78;;;8.78;100.00
35226;BME280;21813;49.686;21.766;2023-05-23T02:38:31;98174.19;;;8.86;100.00
35226;BME280;21813;49.686;21.766;2023-05-23T02:40:56;98147.94;;;8.67;100.00
35226;BME280;21813;49.686;21.766;2023-05-23T02:43:23;98172.97;;;8.79;100.00
35226;BME280;21813;49.686;21.766;2023-05-23T02:45:49;98155.72;;;8.67;100.00
35226;BME280;21813;49.686;21.766;2023-05-23T02:48:16;98162.00;;;8.64;100.00
35226;BME280;21813;49.686;21.766;2023-05-23T02:50:42;98163.75;;;8.64;100.00
35226;BME280;21813;49.686;21.766;2023-05-23T02:53:08;98148.88;;;8.55;100.00
35226;BME280;21813;49.686;21.766;2023-05-23T02:55:34;98171.22;;;8.68;100.00
35226;BME280;21813;49.686;21.766;2023-05-23T02:58:01;98163.75;;;8.64;100.00
35226;BME280;21813;49.686;21.766;2023-05-23T03:00:30;98163.53;;;8.67;100.00
35226;BME280;21813;49.686;21.766;2023-05-23T03:02:57;98153.81;;;8.58;100.00
35226;BME280;21813;49.686;21.766;2023-05-23T03:05:23;98168.47;;;8.70;100.00
35226;BME280;21813;49.686;21.766;2023-05-23T03:10:19;98156.91;;;8.63;100.00
35226;BME280;21813;49.686;21.766;2023-05-23T03:12:46;98125.00;;;8.50;100.00
35226;BME280;21813;49.686;21.766;2023-05-23T03:15:11;98134.69;;;8.59;100.00
35226;BME280;21813;49.686;21.766;2023-05-23T03:17:38;98135.41;;;8.61;100.00
35226;BME280;21813;49.686;21.766;2023-05-23T03:20:04;98131.03;;;8.61;100.00
35226;BME280;21813;49.686;21.766;2023-05-23T03:22:32;98154.09;;;8.77;100.00
35226;BME280;21813;49.686;21.766;2023-05-23T03:24:57;98146.84;;;8.69;100.00
35226;BME280;21813;49.686;21.766;2023-05-23T03:27:23;98133.41;;;8.64;100.00
35226;BME280;21813;49.686;21.766;2023-05-23T03:29:49;98147.69;;;8.70;100.00
35226;BME280;21813;49.686;21.766;2023-05-23T03:32:16;98159.97;;;8.79;100.00
35226;BME280;21813;49.686;21.766;2023-05-23T03:34:42;98142.28;;;8.73;100.00
35226;BME280;21813;49.686;21.766;2023-05-23T03:37:08;98135.19;;;8.75;100.00
35226;BME280;21813;49.686;21.766;2023-05-23T03:39:34;98128.56;;;8.71;100.00
35226;BME280;21813;49.686;21.766;2023-05-23T03:42:01;98140.66;;;8.83;100.00
35226;BME280;21813;49.686;21.766;2023-05-23T03:44:27;98132.13;;;8.81;100.00
35226;BME280;21813;49.686;21.766;2023-05-23T03:46:54;98116.78;;;8.78;100.00
35226;BME280;21813;49.686;21.766;2023-05-23T03:49:20;98127.88;;;8.91;100.00
35226;BME280;21813;49.686;21.766;2023-05-23T03:51:47;98140.88;;;9.02;100.00
35226;BME280;21813;49.686;21.766;2023-05-23T03:54:12;98133.19;;;9.01;100.00
35226;BME280;21813;49.686;21.766;2023-05-23T03:56:40;98132.50;;;9.10;100.00
35226;BME280;21813;49.686;21.766;2023-05-23T03:59:06;98126.47;;;9.09;100.00
35226;BME280;21813;49.686;21.766;2023-05-23T04:01:32;98123.41;;;9.15;100.00
35226;BME280;21813;49.686;21.766;2023-05-23T04:03:57;98121.00;;;9.23;100.00
35226;BME280;21813;49.686;21.766;2023-05-23T04:06:25;98122.75;;;9.34;100.00
35226;BME280;21813;49.686;21.766;2023-05-23T04:08:54;98142.47;;;9.59;100.00
35226;BME280;21813;49.686;21.766;2023-05-23T04:11:21;98140.91;;;9.67;100.00
35226;BME280;21813;49.686;21.766;2023-05-23T04:18:56;98135.50;;;9.91;100.00
35226;BME280;21813;49.686;21.766;2023-05-23T04:21:23;98124.25;;;9.91;100.00
35226;BME280;21813;49.686;21.766;2023-05-23T04:23:49;98147.84;;;10.10;100.00
35226;BME280;21813;49.686;21.766;2023-05-23T04:26:16;98128.22;;;10.06;100.00
35226;BME280;21813;49.686;21.766;2023-05-23T04:28:42;98134.13;;;10.19;100.00
35226;BME280;21813;49.686;21.766;2023-05-23T04:31:13;98135.47;;;10.34;100.00
35226;BME280;21813;49.686;21.766;2023-05-23T04:33:39;98116.41;;;10.34;100.00
35226;BME280;21813;49.686;21.766;2023-05-23T04:36:06;98110.69;;;10.40;100.00
35226;BME280;21813;49.686;21.766;2023-05-23T04:38:35;98130.69;;;10.60;100.00
35226;BME280;21813;49.686;21.766;2023-05-23T04:41:04;98087.81;;;10.43;100.00
35226;BME280;21813;49.686;21.766;2023-05-23T04:43:30;98119.50;;;10.69;100.00
35226;BME280;21813;49.686;21.766;2023-05-23T04:45:59;98122.97;;;10.79;100.00
35226;BME280;21813;49.686;21.766;2023-05-23T04:48:24;98090.38;;;10.64;100.00
35226;BME280;21813;49.686;21.766;2023-05-23T04:50:52;98091.81;;;10.78;100.00
35226;BME280;21813;49.686;21.766;2023-05-23T04:53:23;98118.81;;;10.97;100.00
35226;BME280;21813;49.686;21.766;2023-05-23T04:55:49;98084.44;;;10.83;100.00
35226;BME280;21813;49.686;21.766;2023-05-23T04:58:15;98086.25;;;10.92;100.00
35226;BME280;21813;49.686;21.766;2023-05-23T05:00:43;98098.53;;;11.11;100.00
35226;BME280;21813;49.686;21.766;2023-05-23T05:03:08;98114.53;;;11.27;100.00
35226;BME280;21813;49.686;21.766;2023-05-23T05:05:36;98095.31;;;11.28;100.00
35226;BME280;21813;49.686;21.766;2023-05-23T05:08:02;98109.50;;;11.54;100.00
35226;BME280;21813;49.686;21.766;2023-05-23T05:10:28;98094.94;;;11.61;100.00
35226;BME280;21813;49.686;21.766;2023-05-23T05:12:54;98110.94;;;11.77;100.00
35226;BME280;21813;49.686;21.766;2023-05-23T05:15:20;98110.53;;;11.91;100.00
35226;BME280;21813;49.686;21.766;2023-05-23T05:17:46;98077.13;;;11.76;99.32
35226;BME280;21813;49.686;21.766;2023-05-23T05:20:13;98077.69;;;11.79;99.55
35226;BME280;21813;49.686;21.766;2023-05-23T05:22:39;98109.72;;;12.10;99.83
35226;BME280;21813;49.686;21.766;2023-05-23T05:25:08;98086.34;;;12.09;99.69
35226;BME280;21813;49.686;21.766;2023-05-23T05:30:39;98073.97;;;12.11;99.82
35226;BME280;21813;49.686;21.766;2023-05-23T05:33:06;98106.94;;;12.31;97.80
35226;BME280;21813;49.686;21.766;2023-05-23T05:35:34;98082.75;;;12.29;96.14
35226;BME280;21813;49.686;21.766;2023-05-23T05:38:03;98060.56;;;12.52;95.13
35226;BME280;21813;49.686;21.766;2023-05-23T05:40:33;98096.16;;;13.00;93.93
35226;BME280;21813;49.686;21.766;2023-05-23T05:42:59;98103.72;;;13.12;93.36
35226;BME280;21813;49.686;21.766;2023-05-23T05:45:27;98060.22;;;13.02;91.13
35226;BME280;21813;49.686;21.766;2023-05-23T05:47:52;98071.72;;;13.09;91.39
35226;BME280;21813;49.686;21.766;2023-05-23T05:50:23;98081.22;;;13.19;91.40
35226;BME280;21813;49.686;21.766;2023-05-23T05:55:58;98074.16;;;13.30;92.32
35226;BME280;21813;49.686;21.766;2023-05-23T05:58:26;98061.75;;;13.32;93.26
35226;BME280;21813;49.686;21.766;2023-05-23T06:00:52;98048.50;;;13.33;93.20
35226;BME280;21813;49.686;21.766;2023-05-23T06:03:32;98079.81;;;13.70;91.95
35226;BME280;21813;49.686;21.766;2023-05-23T06:05:58;98042.25;;;13.61;91.07
35226;BME280;21813;49.686;21.766;2023-05-23T06:08:26;98072.31;;;13.93;90.77
35226;BME280;21813;49.686;21.766;2023-05-23T06:10:52;98074.91;;;14.10;90.12
35226;BME280;21813;49.686;21.766;2023-05-23T06:13:19;98052.25;;;14.19;89.13
35226;BME280;21813;49.686;21.766;2023-05-23T06:15:44;98046.44;;;14.33;87.59
35226;BME280;21813;49.686;21.766;2023-05-23T06:18:12;98067.41;;;14.51;85.18
35226;BME280;21813;49.686;21.766;2023-05-23T06:20:38;98060.34;;;14.51;86.07
35226;BME280;21813;49.686;21.766;2023-05-23T06:23:05;98064.31;;;14.55;86.67
35226;BME280;21813;49.686;21.766;2023-05-23T06:25:31;98051.56;;;14.61;87.29
35226;BME280;21813;49.686;21.766;2023-05-23T06:27:57;98056.88;;;14.77;86.29
35226;BME280;21813;49.686;21.766;2023-05-23T06:30:23;98066.78;;;14.91;85.17
35226;BME280;21813;49.686;21.766;2023-05-23T06:32:50;98081.94;;;15.05;84.42
35226;BME280;21813;49.686;21.766;2023-05-23T06:35:16;98049.44;;;14.98;85.76
35226;BME280;21813;49.686;21.766;2023-05-23T06:37:44;98073.47;;;15.19;87.34
35226;BME280;21813;49.686;21.766;2023-05-23T06:40:11;98061.03;;;15.21;87.17
35226;BME280;21813;49.686;21.766;2023-05-23T06:42:38;98067.63;;;15.41;87.19
35226;BME280;21813;49.686;21.766;2023-05-23T06:45:04;98066.72;;;15.51;87.22
35226;BME280;21813;49.686;21.766;2023-05-23T06:47:31;98063.78;;;15.62;86.95
35226;BME280;21813;49.686;21.766;2023-05-23T06:49:56;98030.41;;;15.54;85.99
35226;BME280;21813;49.686;21.766;2023-05-23T06:52:23;98048.69;;;15.72;84.24
35226;BME280;21813;49.686;21.766;2023-05-23T06:54:50;98063.34;;;15.90;83.73
35226;BME280;21813;49.686;21.766;2023-05-23T06:57:16;98052.16;;;16.05;83.96
35226;BME280;21813;49.686;21.766;2023-05-23T06:59:42;98034.75;;;16.04;83.38
35226;BME280;21813;49.686;21.766;2023-05-23T07:02:08;98032.91;;;16.20;83.54
35226;BME280;21813;49.686;21.766;2023-05-23T07:04:34;98048.50;;;16.38;83.98
35226;BME280;21813;49.686;21.766;2023-05-23T07:07:02;98045.69;;;16.56;82.65
35226;BME280;21813;49.686;21.766;2023-05-23T07:09:28;98045.72;;;16.64;81.61
35226;BME280;21813;49.686;21.766;2023-05-23T07:11:53;98029.09;;;16.63;79.18
35226;BME280;21813;49.686;21.766;2023-05-23T07:14:19;98037.13;;;16.78;79.55
35226;BME280;21813;49.686;21.766;2023-05-23T07:16:45;98031.16;;;16.84;80.24
35226;BME280;21813;49.686;21.766;2023-05-23T07:19:11;98045.94;;;17.01;78.75
35226;BME280;21813;49.686;21.766;2023-05-23T07:21:39;98034.06;;;17.05;76.96
35226;BME280;21813;49.686;21.766;2023-05-23T07:26:59;98011.59;;;17.17;77.41
35226;BME280;21813;49.686;21.766;2023-05-23T07:29:25;98006.13;;;17.27;76.17
35226;BME280;21813;49.686;21.766;2023-05-23T07:31:51;98017.03;;;17.47;75.60
35226;BME280;21813;49.686;21.766;2023-05-23T07:34:18;98015.31;;;17.62;71.35
35226;BME280;21813;49.686;21.766;2023-05-23T07:36:44;98007.16;;;17.72;67.18
35226;BME280;21813;49.686;21.766;2023-05-23T07:39:12;98013.06;;;17.96;69.39
35226;BME280;21813;49.686;21.766;2023-05-23T07:41:39;98025.00;;;18.30;71.38
35226;BME280;21813;49.686;21.766;2023-05-23T07:44:06;98008.75;;;18.56;71.22
35226;BME280;21813;49.686;21.766;2023-05-23T07:46:32;97995.56;;;18.70;73.46
35226;BME280;21813;49.686;21.766;2023-05-23T07:49:01;98031.03;;;19.12;70.32
35226;BME280;21813;49.686;21.766;2023-05-23T07:51:27;97982.22;;;19.08;71.46
35226;BME280;21813;49.686;21.766;2023-05-23T07:53:57;97998.00;;;19.37;70.47
35226;BME280;21813;49.686;21.766;2023-05-23T07:56:23;98016.31;;;19.74;70.26
35226;BME280;21813;49.686;21.766;2023-05-23T07:58:52;98021.16;;;19.92;69.67
35226;BME280;21813;49.686;21.766;2023-05-23T08:01:21;98004.06;;;19.95;68.83
35226;BME280;21813;49.686;21.766;2023-05-23T08:03:52;98012.19;;;20.14;67.42
35226;BME280;21813;49.686;21.766;2023-05-23T08:06:18;98026.97;;;20.30;68.75
35226;BME280;21813;49.686;21.766;2023-05-23T08:08:45;98003.81;;;20.32;66.40
35226;BME280;21813;49.686;21.766;2023-05-23T08:11:11;98024.53;;;20.56;64.67
35226;BME280;21813;49.686;21.766;2023-05-23T08:13:41;98028.03;;;20.63;64.40
35226;BME280;21813;49.686;21.766;2023-05-23T08:16:06;98019.91;;;20.65;61.45
35226;BME280;21813;49.686;21.766;2023-05-23T08:18:32;98018.31;;;20.70;63.75
35226;BME280;21813;49.686;21.766;2023-05-23T08:20:58;98007.84;;;20.62;61.95
35226;BME280;21813;49.686;21.766;2023-05-23T08:23:24;98029.91;;;20.69;63.74
35226;BME280;21813;49.686;21.766;2023-05-23T08:25:51;98022.81;;;20.77;64.52
35226;BME280;21813;49.686;21.766;2023-05-23T08:28:17;98012.66;;;20.80;64.26
35226;BME280;21813;49.686;21.766;2023-05-23T08:30:43;98010.03;;;20.87;64.61
35226;BME280;21813;49.686;21.766;2023-05-23T08:33:11;98028.28;;;21.03;63.16
35226;BME280;21813;49.686;21.766;2023-05-23T08:35:43;97995.19;;;20.92;62.79
35226;BME280;21813;49.686;21.766;2023-05-23T08:38:10;98016.75;;;21.17;61.64
35226;BME280;21813;49.686;21.766;2023-05-23T08:40:41;98003.19;;;21.05;61.03
35226;BME280;21813;49.686;21.766;2023-05-23T08:43:13;98016.13;;;21.15;62.95
35226;BME280;21813;49.686;21.766;2023-05-23T08:45:39;98029.63;;;21.33;61.89
35226;BME280;21813;49.686;21.766;2023-05-23T08:48:07;98018.25;;;21.39;61.50
35226;BME280;21813;49.686;21.766;2023-05-23T08:50:45;98014.22;;;21.50;59.95
35226;BME280;21813;49.686;21.766;2023-05-23T08:53:16;98005.66;;;21.54;61.84
35226;BME280;21813;49.686;21.766;2023-05-23T08:55:46;98006.91;;;21.72;60.10
35226;BME280;21813;49.686;21.766;2023-05-23T08:58:17;98003.22;;;21.66;58.98
35226;BME280;21813;49.686;21.766;2023-05-23T09:00:45;98009.34;;;21.73;61.43
35226;BME280;21813;49.686;21.766;2023-05-23T09:03:14;98007.72;;;21.79;63.37
35226;BME280;21813;49.686;21.766;2023-05-23T09:05:41;98008.13;;;21.89;59.95
35226;BME280;21813;49.686;21.766;2023-05-23T09:08:08;98004.91;;;22.00;60.20
35226;BME280;21813;49.686;21.766;2023-05-23T09:10:33;98002.47;;;22.12;62.40
35226;BME280;21813;49.686;21.766;2023-05-23T09:13:02;97986.34;;;22.13;58.63
35226;BME280;21813;49.686;21.766;2023-05-23T09:15:28;98000.22;;;22.28;60.36
35226;BME280;21813;49.686;21.766;2023-05-23T09:18:02;97983.03;;;22.24;60.21
35226;BME280;21813;49.686;21.766;2023-05-23T09:20:28;98003.66;;;22.48;57.55
35226;BME280;21813;49.686;21.766;2023-05-23T09:22:55;98002.00;;;22.54;57.84
35226;BME280;21813;49.686;21.766;2023-05-23T09:25:21;97980.38;;;22.51;55.54
35226;BME280;21813;49.686;21.766;2023-05-23T09:27:51;97992.22;;;22.55;56.81
35226;BME280;21813;49.686;21.766;2023-05-23T09:30:17;98001.38;;;22.72;57.81
35226;BME280;21813;49.686;21.766;2023-05-23T09:32:56;97981.75;;;22.66;56.30
35226;BME280;21813;49.686;21.766;2023-05-23T09:35:24;97996.25;;;22.83;58.32
35226;BME280;21813;49.686;21.766;2023-05-23T09:37:50;97985.63;;;22.83;55.12
35226;BME280;21813;49.686;21.766;2023-05-23T09:40:16;97999.28;;;22.94;54.24
35226;BME280;21813;49.686;21.766;2023-05-23T09:42:44;97992.13;;;22.94;55.80
35226;BME280;21813;49.686;21.766;2023-05-23T09:45:14;97996.16;;;23.03;55.80
35226;BME280;21813;49.686;21.766;2023-05-23T09:47:51;97989.59;;;23.12;54.97
35226;BME280;21813;49.686;21.766;2023-05-23T09:50:17;97986.94;;;23.12;53.71
35226;BME280;21813;49.686;21.766;2023-05-23T09:52:43;97967.13;;;23.08;53.61
35226;BME280;21813;49.686;21.766;2023-05-23T09:55:09;97985.91;;;23.13;51.12
35226;BME280;21813;49.686;21.766;2023-05-23T09:57:39;97971.97;;;23.18;53.42
35226;BME280;21813;49.686;21.766;2023-05-23T10:00:05;97966.72;;;23.11;52.47
35226;BME280;21813;49.686;21.766;2023-05-23T10:03:09;97988.31;;;23.28;53.24
35226;BME280;21813;49.686;21.766;2023-05-23T10:05:43;97959.06;;;23.21;53.32
35226;BME280;21813;49.686;21.766;2023-05-23T10:08:15;97975.16;;;23.40;52.79
35226;BME280;21813;49.686;21.766;2023-05-23T10:13:25;97980.44;;;23.53;53.73
35226;BME280;21813;49.686;21.766;2023-05-23T10:18:48;97982.56;;;23.69;52.08
35226;BME280;21813;49.686;21.766;2023-05-23T10:21:32;97972.16;;;23.67;52.59
35226;BME280;21813;49.686;21.766;2023-05-23T10:24:03;97963.59;;;23.59;50.46
35226;BME280;21813;49.686;21.766;2023-05-23T10:26:29;97957.06;;;23.55;50.89
35226;BME280;21813;49.686;21.766;2023-05-23T10:28:56;97961.00;;;23.46;50.67
35226;BME280;21813;49.686;21.766;2023-05-23T10:31:23;97955.94;;;23.44;51.85
35226;BME280;21813;49.686;21.766;2023-05-23T10:33:57;97955.69;;;23.46;52.67
35226;BME280;21813;49.686;21.766;2023-05-23T10:36:35;97954.66;;;23.47;50.72
35226;BME280;21813;49.686;21.766;2023-05-23T10:39:11;97947.75;;;23.39;51.20
35226;BME280;21813;49.686;21.766;2023-05-23T10:41:50;97965.28;;;23.53;51.97
35226;BME280;21813;49.686;21.766;2023-05-23T10:44:21;97965.22;;;23.60;52.55
35226;BME280;21813;49.686;21.766;2023-05-23T10:46:53;97949.44;;;23.65;52.63
35226;BME280;21813;49.686;21.766;2023-05-23T10:49:36;97947.28;;;23.80;52.92
35226;BME280;21813;49.686;21.766;2023-05-23T10:52:02;97947.00;;;23.88;53.57
35226;BME280;21813;49.686;21.766;2023-05-23T10:54:34;97931.03;;;23.88;51.67
35226;BME280;21813;49.686;21.766;2023-05-23T10:57:04;97939.94;;;24.00;52.07
35226;BME280;21813;49.686;21.766;2023-05-23T10:59:32;97941.94;;;24.05;51.20
35226;BME280;21813;49.686;21.766;2023-05-23T11:01:58;97946.03;;;24.07;52.84
35226;BME280;21813;49.686;21.766;2023-05-23T11:04:27;97950.50;;;24.13;50.91
35226;BME280;21813;49.686;21.766;2023-05-23T11:06:57;97928.41;;;24.06;50.05
35226;BME280;21813;49.686;21.766;2023-05-23T11:09:25;97910.63;;;24.00;48.73
35226;BME280;21813;49.686;21.766;2023-05-23T11:11:54;97922.63;;;24.09;48.93
35226;BME280;21813;49.686;21.766;2023-05-23T11:17:48;97903.88;;;24.04;50.63
35226;BME280;21813;49.686;21.766;2023-05-23T11:20:02;97902.97;;;24.10;51.05
35226;BME280;21813;49.686;21.766;2023-05-23T11:22:32;97900.09;;;24.12;49.78
35226;BME280;21813;49.686;21.766;2023-05-23T11:25:00;97912.50;;;24.25;53.20
35226;BME280;21813;49.686;21.766;2023-05-23T11:27:34;97904.44;;;24.31;50.37
35226;BME280;21813;49.686;21.766;2023-05-23T11:30:10;97894.22;;;24.28;53.61
35226;BME280;21813;49.686;21.766;2023-05-23T11:32:38;97899.28;;;24.36;51.58
35226;BME280;21813;49.686;21.766;2023-05-23T11:35:06;97884.50;;;24.15;50.78
35226;BME280;21813;49.686;21.766;2023-05-23T11:37:33;97875.09;;;24.13;49.74
35226;BME280;21813;49.686;21.766;2023-05-23T11:40:26;97890.16;;;24.26;50.34
35226;BME280;21813;49.686;21.766;2023-05-23T11:42:53;97882.78;;;24.28;49.80
35226;BME280;21813;49.686;21.766;2023-05-23T11:45:20;97888.09;;;24.28;48.37
35226;BME280;21813;49.686;21.766;2023-05-23T11:47:46;97877.97;;;24.11;48.53
35226;BME280;21813;49.686;21.766;2023-05-23T11:50:14;97890.81;;;24.21;49.38
35226;BME280;21813;49.686;21.766;2023-05-23T11:52:45;97875.31;;;24.11;49.87
35226;BME280;21813;49.686;21.766;2023-05-23T11:55:18;97865.38;;;24.00;48.37
35226;BME280;21813;49.686;21.766;2023-05-23T11:57:44;97879.63;;;24.12;49.19
35226;BME280;21813;49.686;21.766;2023-05-23T12:00:11;97872.66;;;24.11;49.48
35226;BME280;21813;49.686;21.766;2023-05-23T12:02:41;97879.34;;;24.20;49.01
35226;BME280;21813;49.686;21.766;2023-05-23T12:05:11;97862.75;;;24.18;49.00
35226;BME280;21813;49.686;21.766;2023-05-23T12:07:45;97849.22;;;24.20;50.00
35226;BME280;21813;49.686;21.766;2023-05-23T12:10:16;97848.25;;;24.33;50.10
35226;BME280;21813;49.686;21.766;2023-05-23T12:12:42;97869.16;;;24.36;49.21
35226;BME280;21813;49.686;21.766;2023-05-23T12:15:10;97849.03;;;24.22;49.90
35226;BME280;21813;49.686;21.766;2023-05-23T12:17:37;97854.03;;;24.30;49.00
35226;BME280;21813;49.686;21.766;2023-05-23T12:20:07;97861.47;;;24.46;51.69
35226;BME280;21813;49.686;21.766;2023-05-23T12:22:34;97851.84;;;24.45;47.72
35226;BME280;21813;49.686;21.766;2023-05-23T12:25:10;97837.59;;;24.33;47.28
35226;BME280;21813;49.686;21.766;2023-05-23T12:27:39;97828.13;;;24.18;45.85
35226;BME280;21813;49.686;21.766;2023-05-23T12:30:13;97838.53;;;24.27;46.82
35226;BME280;21813;49.686;21.766;2023-05-23T12:32:40;97844.41;;;24.47;48.46
35226;BME280;21813;49.686;21.766;2023-05-23T12:35:10;97820.75;;;24.39;48.52
35226;BME280;21813;49.686;21.766;2023-05-23T12:37:43;97831.69;;;24.49;48.29
35226;BME280;21813;49.686;21.766;2023-05-23T12:40:17;97837.16;;;24.54;48.38
35226;BME280;21813;49.686;21.766;2023-05-23T12:42:49;97848.53;;;24.61;49.05
35226;BME280;21813;49.686;21.766;2023-05-23T12:45:32;97826.22;;;24.44;47.72
35226;BME280;21813;49.686;21.766;2023-05-23T12:47:58;97833.75;;;24.47;48.47
35226;BME280;21813;49.686;21.766;2023-05-23T12:53:01;97844.13;;;24.55;50.73
35226;BME280;21813;49.686;21.766;2023-05-23T12:55:30;97839.84;;;24.54;48.99
35226;BME280;21813;49.686;21.766;2023-05-23T12:58:11;97845.19;;;24.65;50.64
35226;BME280;21813;49.686;21.766;2023-05-23T13:00:56;97844.09;;;24.73;50.16
35226;BME280;21813;49.686;21.766;2023-05-23T13:03:21;97840.28;;;24.81;50.75
35226;BME280;21813;49.686;21.766;2023-05-23T13:05:48;97834.16;;;24.80;49.31
35226;BME280;21813;49.686;21.766;2023-05-23T13:08:14;97830.63;;;24.86;50.44
35226;BME280;21813;49.686;21.766;2023-05-23T13:10:46;97822.63;;;24.86;47.68
35226;BME280;21813;49.686;21.766;2023-05-23T13:13:11;97827.41;;;24.96;49.47
35226;BME280;21813;49.686;21.766;2023-05-23T13:15:38;97808.66;;;24.84;48.91
35226;BME280;21813;49.686;21.766;2023-05-23T13:18:04;97810.47;;;24.90;46.88
35226;BME280;21813;49.686;21.766;2023-05-23T13:20:32;97822.97;;;24.90;47.49
35226;BME280;21813;49.686;21.766;2023-05-23T13:22:58;97797.91;;;24.61;53.09
35226;BME280;21813;49.686;21.766;2023-05-23T13:25:27;97816.34;;;24.62;52.38
35226;BME280;21813;49.686;21.766;2023-05-23T13:27:52;97816.34;;;24.62;48.16
35226;BME280;21813;49.686;21.766;2023-05-23T13:30:20;97804.59;;;24.52;49.16
35226;BME280;21813;49.686;21.766;2023-05-23T13:32:46;97819.63;;;24.64;47.37